Time;durP1;ratioP1;P1;durP2;ratioP2;P2;SDS_P1;SDS_P2;PMS_P1;PMS_P2;Temp;Humidity;BMP_temperature;BMP_pressure;BME280_temperature;BME280_humidity;BME280_pressure;Samples;Min_cycle;Max_cycle;Signal;HPM_P1;HPM_P2
2022/08/30 00:03:09;;;;;;;3.22;1.10;;;16.10;99.90;;;;;;12485157;28;20186;-34
2022/08/30 00:09:11;;;;;;;3.20;1.10;;;16.20;99.90;;;;;;12482131;28;20451;-34
2022/08/30 00:15:14;;;;;;;3.47;1.00;;;16.40;99.90;;;;;;12485718;28;20042;-34
2022/08/30 00:21:16;;;;;;;1.98;1.10;;;16.60;99.90;;;;;;12480934;28;20386;-34
2022/08/30 00:27:18;;;;;;;2.95;1.00;;;16.60;99.90;;;;;;12486380;28;20477;-34
2022/08/30 00:33:20;;;;;;;3.08;1.10;;;16.70;99.90;;;;;;12482389;28;20045;-34
2022/08/30 00:39:22;;;;;;;4.45;1.23;;;16.50;99.90;;;;;;12481088;28;20054;-34
2022/08/30 00:45:29;;;;;;;2.53;1.20;;;16.40;99.90;;;;;;12487714;28;20056;-34
2022/08/30 00:51:32;;;;;;;2.42;1.30;;;16.30;99.90;;;;;;12481091;28;20056;-34
2022/08/30 00:57:34;;;;;;;3.38;1.40;;;16.30;99.90;;;;;;12484444;28;20103;-34
2022/08/30 01:03:38;;;;;;;2.00;1.00;;;16.30;99.90;;;;;;12481903;28;20114;-34
2022/08/30 01:09:39;;;;;;;2.97;1.53;;;16.30;99.90;;;;;;12486773;28;20046;-34
2022/08/30 01:15:43;;;;;;;5.60;1.20;;;16.30;99.90;;;;;;12483363;28;20053;-34
2022/08/30 01:21:51;;;;;;;2.30;1.02;;;16.10;99.90;;;;;;12481768;28;20049;-34
2022/08/30 01:27:57;;;;;;;2.20;1.10;;;16.10;99.90;;;;;;12482931;28;20110;-34
2022/08/30 01:34:00;;;;;;;3.88;1.20;;;16.20;99.90;;;;;;12482200;28;20049;-34
2022/08/30 01:40:04;;;;;;;2.08;0.90;;;16.20;99.90;;;;;;12484273;28;20049;-34
2022/08/30 01:46:09;;;;;;;1.70;1.08;;;16.10;99.90;;;;;;12486599;28;20110;-34
2022/08/30 01:52:12;;;;;;;2.80;1.08;;;16.10;99.90;;;;;;12481055;28;20447;-34
2022/08/30 01:58:13;;;;;;;3.28;1.13;;;16.10;99.90;;;;;;12484944;28;20047;-34
2022/08/30 02:04:15;;;;;;;2.22;1.17;;;16.00;99.90;;;;;;12479963;28;20067;-34
2022/08/30 02:10:17;;;;;;;2.88;1.20;;;15.90;99.90;;;;;;12479483;28;20492;-33
2022/08/30 02:16:21;;;;;;;3.88;1.40;;;15.70;99.90;;;;;;12479347;28;20702;-34
2022/08/30 02:22:23;;;;;;;3.47;1.58;;;15.70;99.90;;;;;;12485002;28;20210;-34
2022/08/30 02:28:25;;;;;;;1.80;1.15;;;15.50;99.90;;;;;;12479988;28;20163;-34
2022/08/30 02:34:27;;;;;;;2.17;1.23;;;15.60;99.90;;;;;;12482470;28;20049;-34
2022/08/30 02:40:29;;;;;;;2.50;1.15;;;15.60;99.90;;;;;;12478284;28;20163;-34
2022/08/30 02:46:32;;;;;;;2.78;1.42;;;15.60;99.90;;;;;;12485176;28;20080;-34
2022/08/30 02:52:36;;;;;;;4.35;1.42;;;15.50;99.90;;;;;;12482832;28;20401;-34
2022/08/30 02:58:41;;;;;;;2.28;1.30;;;15.50;99.90;;;;;;12474379;28;20091;-34
2022/08/30 03:04:45;;;;;;;3.40;1.70;;;15.40;99.90;;;;;;12479925;28;20085;-34
2022/08/30 03:10:47;;;;;;;2.13;1.40;;;15.40;99.90;;;;;;12479802;28;20527;-34
2022/08/30 03:16:49;;;;;;;3.92;1.38;;;15.40;99.90;;;;;;12481874;28;20075;-34
2022/08/30 03:22:51;;;;;;;3.30;1.45;;;15.40;99.90;;;;;;12482240;28;20132;-34
2022/08/30 03:28:53;;;;;;;4.57;1.40;;;15.40;99.90;;;;;;12496255;28;20050;-34
2022/08/30 03:34:54;;;;;;;3.80;1.65;;;15.20;99.90;;;;;;12483839;28;20099;-34
2022/08/30 03:40:56;;;;;;;2.55;1.58;;;15.30;99.90;;;;;;12481503;28;20461;-34
2022/08/30 03:46:58;;;;;;;5.05;2.15;;;15.30;99.90;;;;;;12490383;28;20045;-34
2022/08/30 03:53:00;;;;;;;3.97;2.10;;;15.20;99.90;;;;;;12488757;28;20053;-34
2022/08/30 03:59:02;;;;;;;3.65;1.85;;;15.10;99.90;;;;;;12489768;28;20071;-34
2022/08/30 04:05:05;;;;;;;2.97;1.83;;;15.10;99.90;;;;;;12490060;28;20049;-33
2022/08/30 04:11:07;;;;;;;2.53;1.65;;;15.00;99.90;;;;;;12490136;28;20042;-34
2022/08/30 04:17:09;;;;;;;3.17;1.88;;;15.00;99.90;;;;;;12484140;28;20486;-34
2022/08/30 04:23:11;;;;;;;4.65;2.10;;;14.90;99.90;;;;;;12490673;28;20455;-34
2022/08/30 04:29:15;;;;;;;4.05;2.95;;;14.70;99.90;;;;;;12490516;28;20049;-34
2022/08/30 04:35:17;;;;;;;;;;;14.70;99.90;;;;;;12486349;28;20140;-34
2022/08/30 04:41:23;;;;;;;12.35;6.32;;;14.70;99.90;;;;;;12487158;28;20331;-34
2022/08/30 04:47:25;;;;;;;14.07;7.80;;;14.50;99.90;;;;;;12489923;28;20053;-35
2022/08/30 04:53:27;;;;;;;11.85;8.32;;;14.50;99.90;;;;;;12483798;28;20099;-34
2022/08/30 04:59:29;;;;;;;17.90;10.32;;;14.60;99.90;;;;;;12486950;28;20455;-34
2022/08/30 05:05:40;;;;;;;20.23;12.02;;;14.60;99.90;;;;;;12484736;28;20041;-34
2022/08/30 05:11:42;;;;;;;21.92;12.40;;;14.60;99.90;;;;;;12487218;28;20505;-34
2022/08/30 05:17:44;;;;;;;18.95;12.15;;;14.60;99.90;;;;;;12482580;28;20110;-34
2022/08/30 05:23:48;;;;;;;18.98;11.27;;;14.60;99.90;;;;;;12499253;28;20041;-35
2022/08/30 05:29:50;;;;;;;17.50;10.20;;;14.60;99.90;;;;;;12488887;28;20049;-35
2022/08/30 05:35:51;;;;;;;14.88;9.68;;;14.50;99.90;;;;;;12478364;28;20046;-35
2022/08/30 05:41:57;;;;;;;20.90;10.73;;;14.50;99.90;;;;;;12483448;28;20493;-34
2022/08/30 05:48:00;;;;;;;24.38;11.35;;;14.50;99.90;;;;;;12482878;28;20053;-34
2022/08/30 05:54:02;;;;;;;21.95;12.55;;;14.60;99.90;;;;;;12481675;28;20053;-35
2022/08/30 06:00:13;;;;;;;24.48;13.65;;;14.60;99.90;;;;;;12484293;28;20158;-35
2022/08/30 06:06:15;;;;;;;19.15;11.68;;;14.70;99.90;;;;;;12458104;28;20124;-34
2022/08/30 06:12:17;;;;;;;20.60;11.18;;;14.70;99.90;;;;;;12481562;28;20053;-34
2022/08/30 06:18:19;;;;;;;15.75;10.60;;;14.80;99.90;;;;;;12483516;28;20045;-34
2022/08/30 06:24:29;;;;;;;15.35;9.20;;;14.90;99.90;;;;;;12478906;28;20513;-35
2022/08/30 06:30:50;;;;;;;12.98;8.25;;;14.80;99.90;;;;;;12481165;28;20042;-35
2022/08/30 06:36:53;;;;;;;14.60;8.02;;;14.80;99.90;;;;;;12485160;28;20060;-35
2022/08/30 06:42:55;;;;;;;13.02;8.10;;;15.00;99.90;;;;;;12483233;28;20480;-34
2022/08/30 06:48:58;;;;;;;11.85;7.82;;;14.90;99.90;;;;;;12483094;28;20048;-35
2022/08/30 06:54:59;;;;;;;13.80;8.02;;;15.00;99.90;;;;;;12483810;28;21159;-35
2022/08/30 07:01:01;;;;;;;10.48;7.70;;;15.10;99.90;;;;;;12481755;28;20095;-35
2022/08/30 07:07:03;;;;;;;14.32;7.95;;;15.40;99.90;;;;;;12494166;28;20046;-35
2022/08/30 07:13:06;;;;;;;14.50;9.02;;;15.50;99.90;;;;;;12482042;28;20046;-35
2022/08/30 07:19:08;;;;;;;12.50;7.10;;;15.60;99.90;;;;;;12483482;28;20095;-35
2022/08/30 07:25:21;;;;;;;9.57;5.38;;;15.60;99.90;;;;;;12488749;28;20072;-35
2022/08/30 07:31:23;;;;;;;8.95;5.15;;;15.60;99.90;;;;;;12491006;28;20037;-35
2022/08/30 07:37:25;;;;;;;8.43;4.70;;;15.80;99.90;;;;;;12489961;28;20045;-35
2022/08/30 07:43:30;;;;;;;7.43;4.38;;;15.90;99.90;;;;;;12491529;28;20052;-35
2022/08/30 07:49:32;;;;;;;7.05;4.60;;;16.30;99.90;;;;;;12490683;28;20179;-35
2022/08/30 07:55:34;;;;;;;5.90;3.58;;;16.40;99.90;;;;;;12486481;28;20053;-35
2022/08/30 08:01:35;;;;;;;5.22;2.70;;;16.30;99.90;;;;;;12489769;28;20041;-35
2022/08/30 08:07:38;;;;;;;3.55;2.15;;;16.50;99.90;;;;;;12485795;28;20045;-35
2022/08/30 08:13:41;;;;;;;5.53;2.78;;;16.50;99.90;;;;;;12487833;28;20063;-35
2022/08/30 08:19:54;;;;;;;3.75;2.50;;;16.80;99.90;;;;;;12487455;28;20056;-35
2022/08/30 08:25:56;;;;;;;5.50;2.60;;;16.90;99.90;;;;;;12489168;28;20124;-35
2022/08/30 08:31:59;;;;;;;6.93;2.20;;;16.80;99.90;;;;;;12486414;28;20041;-35
2022/08/30 08:38:00;;;;;;;5.03;2.35;;;16.90;99.90;;;;;;12488809;28;20115;-34
2022/08/30 08:44:36;;;;;;;5.50;1.90;;;17.00;99.90;;;;;;12483432;28;20057;-35
2022/08/30 08:53:33;;;;;;;4.00;2.17;;;16.90;99.90;;;;;;12485103;28;20053;-35
2022/08/30 08:57:03;;;;;;;3.75;2.10;;;17.10;99.90;;;;;;12485212;28;20054;-34
2022/08/30 09:03:08;;;;;;;4.22;2.33;;;17.30;99.90;;;;;;12482911;28;20515;-35
2022/08/30 09:09:11;;;;;;;3.20;2.13;;;17.50;99.90;;;;;;12484274;28;20140;-35
2022/08/30 09:15:23;;;;;;;4.30;2.30;;;17.60;99.90;;;;;;12483363;28;20071;-34
2022/08/30 09:21:27;;;;;;;5.45;2.20;;;17.70;99.90;;;;;;12486624;28;20053;-35
2022/08/30 09:27:35;;;;;;;3.47;2.53;;;17.90;99.90;;;;;;12486313;28;20054;-35
2022/08/30 09:33:37;;;;;;;5.72;2.10;;;18.10;99.90;;;;;;12465570;28;20569;-35
2022/08/30 09:39:43;;;;;;;2.28;1.63;;;18.20;99.90;;;;;;12467620;28;20132;-35
2022/08/30 09:46:06;;;;;;;2.55;1.58;;;18.40;99.90;;;;;;12462214;28;20110;-35
2022/08/30 09:52:34;;;;;;;3.40;1.50;;;18.60;99.90;;;;;;12460647;28;20045;-35
2022/08/30 09:58:54;;;;;;;3.00;1.70;;;18.90;99.90;;;;;;12459301;28;20094;-35
2022/08/30 10:05:04;;;;;;;5.78;1.73;;;18.90;99.90;;;;;;12477925;28;20099;-35
2022/08/30 10:11:09;;;;;;;4.03;1.40;;;19.10;99.90;;;;;;12484575;28;20053;-35
2022/08/30 10:17:26;;;;;;;3.25;1.42;;;19.30;99.90;;;;;;12459976;28;20045;-35
2022/08/30 10:23:33;;;;;;;2.45;1.60;;;19.40;99.90;;;;;;12459686;28;20049;-35
2022/08/30 10:30:02;;;;;;;2.38;1.63;;;19.50;99.90;;;;;;12472190;28;20041;-35
2022/08/30 10:36:09;;;;;;;3.55;1.90;;;19.70;99.90;;;;;;12481759;28;20500;-35
2022/08/30 10:42:21;;;;;;;3.42;2.30;;;19.90;99.90;;;;;;12482705;28;20046;-35
2022/08/30 10:48:32;;;;;;;6.25;2.92;;;20.00;99.90;;;;;;12482915;28;20132;-35
2022/08/30 10:54:41;;;;;;;4.07;2.63;;;20.00;99.90;;;;;;12481760;28;20094;-35
2022/08/30 11:01:06;;;;;;;4.75;3.22;;;20.30;99.90;;;;;;12481701;28;20041;-35
2022/08/30 11:07:31;;;;;;;4.60;3.50;;;20.40;99.90;;;;;;12481589;28;20473;-35
2022/08/30 11:13:36;;;;;;;6.80;3.83;;;20.80;99.90;;;;;;12480228;28;20156;-35
2022/08/30 11:19:40;;;;;;;6.35;4.22;;;21.00;99.90;;;;;;12479879;28;20046;-35
2022/08/30 11:26:00;;;;;;;;;;;20.80;99.90;;;;;;12482206;28;20072;-35
2022/08/30 11:32:12;;;;;;;6.38;3.90;;;20.90;99.90;;;;;;12460132;28;19932;-35
2022/08/30 11:38:39;;;;;;;6.10;4.00;;;20.70;99.90;;;;;;12467760;28;20140;-35
2022/08/30 11:44:41;;;;;;;5.60;4.20;;;21.20;99.90;;;;;;12457376;28;20094;-35
2022/08/30 11:51:01;;;;;;;7.13;3.90;;;21.20;99.90;;;;;;12464386;28;20057;-35
2022/08/30 11:57:25;;;;;;;6.10;3.53;;;21.30;99.90;;;;;;12454956;28;20536;-35
2022/08/30 12:03:32;;;;;;;6.72;3.53;;;21.60;99.90;;;;;;12462645;28;20046;-35
2022/08/30 12:09:36;;;;;;;5.53;3.33;;;21.50;99.90;;;;;;12484382;28;20046;-35
2022/08/30 12:15:57;;;;;;;6.63;3.50;;;21.80;99.90;;;;;;12487835;28;20229;-35
2022/08/30 12:22:05;;;;;;;4.80;3.28;;;21.80;99.90;;;;;;12487613;28;20489;-35
2022/08/30 12:28:14;;;;;;;4.20;2.97;;;21.80;99.90;;;;;;12490437;28;20176;-35
2022/08/30 12:34:25;;;;;;;4.43;2.75;;;22.10;99.90;;;;;;12486442;28;20187;-35
2022/08/30 12:40:30;;;;;;;4.85;2.80;;;22.10;99.90;;;;;;12488754;28;20371;-36
2022/08/30 12:46:32;;;;;;;5.28;2.60;;;22.30;99.90;;;;;;12479902;28;20041;-35
2022/08/30 12:52:46;;;;;;;4.13;2.60;;;22.30;99.90;;;;;;12482634;28;20080;-35
2022/08/30 12:58:51;;;;;;;;;;;22.30;99.90;;;;;;12488829;28;20049;-35
2022/08/30 13:04:55;;;;;;;7.28;2.85;;;22.70;99.90;;;;;;12484712;28;19921;-35
2022/08/30 13:10:59;;;;;;;;;;;22.70;99.90;;;;;;12485564;28;20422;-35
2022/08/30 13:17:17;;;;;;;4.32;2.65;;;23.00;99.90;;;;;;12481369;28;19921;-35
2022/08/30 13:23:23;;;;;;;3.43;2.40;;;22.50;99.90;;;;;;12483276;28;20486;-35
2022/08/30 13:29:37;;;;;;;4.18;2.45;;;22.50;99.90;;;;;;12483526;28;20094;-36
2022/08/30 13:35:39;;;;;;;6.65;2.30;;;22.50;99.90;;;;;;12486263;28;20045;-35
2022/08/30 13:41:42;;;;;;;7.18;2.10;;;22.80;99.90;;;;;;12481263;28;20050;-35
2022/08/30 13:47:45;;;;;;;5.00;2.50;;;22.90;99.90;;;;;;12482463;28;20099;-35
2022/08/30 13:53:47;;;;;;;3.60;2.30;;;22.70;99.90;;;;;;12484594;28;20081;-35
2022/08/30 13:59:54;;;;;;;5.95;2.30;;;23.00;99.90;;;;;;12487577;28;20186;-35
2022/08/30 14:05:58;;;;;;;7.63;2.83;;;22.90;99.90;;;;;;12484715;28;20041;-35
2022/08/30 14:12:20;;;;;;;3.30;2.00;;;22.80;99.90;;;;;;12484462;28;20103;-35
2022/08/30 14:18:42;;;;;;;6.35;2.45;;;22.60;99.90;;;;;;12486326;28;20065;-35
2022/08/30 14:24:44;;;;;;;4.35;2.17;;;22.50;99.90;;;;;;12481761;28;20092;-35
2022/08/30 14:30:46;;;;;;;5.10;2.15;;;22.70;99.90;;;;;;12483408;28;20049;-35
2022/08/30 14:36:51;;;;;;;4.68;2.00;;;22.90;99.90;;;;;;12485980;28;20073;-35
2022/08/30 14:42:53;;;;;;;3.72;1.90;;;22.60;99.90;;;;;;12483117;28;20448;-35
2022/08/30 14:48:54;;;;;;;3.75;1.50;;;22.60;99.90;;;;;;12480603;28;20049;-35
2022/08/30 14:54:58;;;;;;;5.90;1.70;;;22.90;99.90;;;;;;12484231;28;20456;-35
2022/08/30 15:01:11;;;;;;;3.75;1.50;;;23.30;99.90;;;;;;12485290;28;20037;-35
2022/08/30 15:07:15;;;;;;;6.90;1.80;;;23.30;99.90;;;;;;12489186;28;20077;-35
2022/08/30 15:13:17;;;;;;;4.13;1.35;;;23.60;99.90;;;;;;12481906;28;20456;-35
2022/08/30 15:19:20;;;;;;;4.23;1.40;;;23.60;99.90;;;;;;12481881;28;20061;-35
2022/08/30 15:25:22;;;;;;;5.05;1.40;;;23.50;99.90;;;;;;12480796;28;20041;-35
2022/08/30 15:31:27;;;;;;;3.55;1.30;;;23.40;99.90;;;;;;12482770;28;20061;-35
2022/08/30 15:37:29;;;;;;;2.90;1.27;;;23.00;99.90;;;;;;12476205;28;20046;-35
2022/08/30 15:43:31;;;;;;;4.22;1.70;;;23.10;99.90;;;;;;12488985;28;20705;-35
2022/08/30 15:49:35;;;;;;;2.78;1.20;;;23.30;99.90;;;;;;12492022;28;20504;-35
2022/08/30 15:55:37;;;;;;;7.50;1.55;;;23.10;99.90;;;;;;12488846;28;20409;-35
2022/08/30 16:01:39;;;;;;;4.10;1.48;;;23.00;99.90;;;;;;12490772;28;20091;-35
2022/08/30 16:07:41;;;;;;;3.17;1.90;;;23.10;99.90;;;;;;12491986;28;20052;-35
2022/08/30 16:13:44;;;;;;;2.92;1.30;;;23.20;99.90;;;;;;12493848;28;20472;-35
2022/08/30 16:19:51;;;;;;;3.78;1.40;;;22.90;99.90;;;;;;12487149;28;20045;-35
2022/08/30 16:25:59;;;;;;;1.85;1.00;;;22.60;99.90;;;;;;12491103;28;20053;-35
2022/08/30 16:32:05;;;;;;;2.42;1.20;;;22.50;99.90;;;;;;12489732;28;20088;-35
2022/08/30 16:38:07;;;;;;;2.40;1.17;;;22.50;99.90;;;;;;12489817;28;20046;-35
2022/08/30 16:44:09;;;;;;;2.60;1.05;;;22.70;99.90;;;;;;12488568;28;20049;-35
2022/08/30 16:50:17;;;;;;;6.82;1.25;;;22.50;99.90;;;;;;12488918;28;20489;-35
2022/08/30 16:56:23;;;;;;;3.63;0.98;;;22.30;99.90;;;;;;12490521;28;20107;-35
2022/08/30 17:02:27;;;;;;;2.92;1.45;;;22.00;99.90;;;;;;12479756;28;20061;-35
2022/08/30 17:08:29;;;;;;;3.03;1.20;;;21.90;99.90;;;;;;12487121;28;20103;-35
2022/08/30 17:14:32;;;;;;;3.45;1.25;;;21.70;99.90;;;;;;12485877;28;20068;-35
2022/08/30 17:20:34;;;;;;;1.98;1.20;;;21.50;99.90;;;;;;12487641;28;20441;-35
2022/08/30 17:26:38;;;;;;;3.70;1.45;;;21.30;99.90;;;;;;12488561;28;20048;-35
2022/08/30 17:32:40;;;;;;;6.68;1.50;;;21.20;99.90;;;;;;12487201;28;20080;-35
2022/08/30 17:38:42;;;;;;;3.35;1.60;;;21.10;99.90;;;;;;12479253;28;20417;-35
2022/08/30 17:44:45;;;;;;;6.03;1.67;;;21.10;99.90;;;;;;12483030;28;20069;-35
2022/08/30 17:50:54;;;;;;;2.40;1.40;;;20.80;99.90;;;;;;12482066;28;20042;-35
2022/08/30 17:56:58;;;;;;;5.20;1.60;;;20.60;99.90;;;;;;12482989;28;20180;-35
2022/08/30 18:03:00;;;;;;;2.57;1.50;;;20.50;99.90;;;;;;12487345;28;20097;-35
2022/08/30 18:09:04;;;;;;;2.73;1.50;;;20.20;99.90;;;;;;12478730;28;20106;-35
2022/08/30 18:15:07;;;;;;;2.53;1.25;;;20.10;99.90;;;;;;12479060;28;20103;-35
2022/08/30 18:21:17;;;;;;;2.35;1.35;;;19.90;99.90;;;;;;12497994;28;20516;-35
2022/08/30 18:27:22;;;;;;;3.83;1.00;;;19.80;99.90;;;;;;12483263;28;20053;-35
2022/08/30 18:33:26;;;;;;;4.43;0.90;;;19.70;99.90;;;;;;12483283;28;20049;-35
2022/08/30 18:39:29;;;;;;;0.95;0.70;;;19.60;99.90;;;;;;12482979;28;20041;-35
2022/08/30 18:45:41;;;;;;;2.78;0.80;;;19.50;99.90;;;;;;12478868;28;20033;-35
2022/08/30 18:51:43;;;;;;;2.40;0.70;;;19.40;99.90;;;;;;12481706;28;20053;-35
2022/08/30 18:57:44;;;;;;;4.55;0.80;;;19.40;99.90;;;;;;12480033;28;20095;-35
2022/08/30 19:03:46;;;;;;;2.22;0.70;;;19.30;99.90;;;;;;12479886;28;20045;-35
2022/08/30 19:09:48;;;;;;;2.25;0.60;;;19.20;99.90;;;;;;12487101;28;20519;-35
2022/08/30 19:15:52;;;;;;;1.10;0.55;;;19.20;99.90;;;;;;12485758;28;20056;-35
2022/08/30 19:21:54;;;;;;;1.40;0.60;;;19.10;99.90;;;;;;12510270;28;20057;-35
2022/08/30 19:27:56;;;;;;;1.20;0.60;;;19.10;99.90;;;;;;12484136;28;20084;-35
2022/08/30 19:33:58;;;;;;;1.73;0.60;;;19.10;99.90;;;;;;12489510;28;20128;-35
2022/08/30 19:40:03;;;;;;;2.80;0.60;;;19.10;99.90;;;;;;12490242;28;20061;-35
2022/08/30 19:46:06;;;;;;;1.63;0.63;;;18.90;99.90;;;;;;12488230;28;20038;-35
2022/08/30 19:52:08;;;;;;;2.23;0.50;;;18.90;99.90;;;;;;12488187;28;20050;-35
2022/08/30 19:58:11;;;;;;;1.25;0.60;;;18.80;99.90;;;;;;12486361;28;20136;-35
2022/08/30 20:04:13;;;;;;;3.45;0.57;;;18.70;99.90;;;;;;12487167;28;20080;-35
2022/08/30 20:10:15;;;;;;;1.05;0.50;;;18.60;99.90;;;;;;12491748;28;20136;-35
2022/08/30 20:16:18;;;;;;;1.97;0.90;;;18.60;99.90;;;;;;12491879;28;20049;-35
2022/08/30 20:22:20;;;;;;;2.38;0.57;;;18.60;99.90;;;;;;12504605;28;20053;-35
2022/08/30 20:28:23;;;;;;;2.08;0.50;;;18.60;99.90;;;;;;12486877;28;20128;-35
2022/08/30 20:34:26;;;;;;;2.75;0.70;;;18.60;99.90;;;;;;12486463;28;20049;-35
2022/08/30 20:40:29;;;;;;;1.80;0.60;;;18.50;99.90;;;;;;12484299;28;20099;-35
2022/08/30 20:46:30;;;;;;;2.67;0.52;;;18.30;99.90;;;;;;12501267;28;20050;-35
2022/08/30 20:52:35;;;;;;;1.52;0.60;;;18.20;99.90;;;;;;12482193;28;20053;-35
2022/08/30 20:58:36;;;;;;;1.70;0.60;;;18.10;99.90;;;;;;12485168;28;20049;-35
2022/08/30 21:04:38;;;;;;;1.55;0.70;;;18.10;99.90;;;;;;12487043;28;20132;-35
2022/08/30 21:10:40;;;;;;;2.00;0.80;;;18.00;99.90;;;;;;12485725;28;20057;-35
2022/08/30 21:16:42;;;;;;;3.33;0.77;;;17.90;99.90;;;;;;12488322;28;20551;-35
2022/08/30 21:22:44;;;;;;;3.78;0.80;;;17.70;99.90;;;;;;12487253;28;20050;-35
2022/08/30 21:28:48;;;;;;;1.95;0.63;;;17.70;99.90;;;;;;12486929;28;20087;-35
2022/08/30 21:41:11;;;;;;;1.95;0.82;;;17.60;99.90;;;;;;12478954;28;20148;-35
2022/08/30 21:47:13;;;;;;;1.63;0.77;;;17.60;99.90;;;;;;12481845;28;20064;-35
2022/08/30 21:53:23;;;;;;;2.25;0.93;;;17.50;99.90;;;;;;12485879;28;20049;-35
2022/08/30 21:59:27;;;;;;;3.58;0.70;;;17.50;99.90;;;;;;12479074;28;20146;-35
2022/08/30 22:05:29;;;;;;;3.07;0.73;;;17.30;99.90;;;;;;12476016;28;20072;-35
2022/08/30 22:11:33;;;;;;;1.80;0.75;;;17.20;99.90;;;;;;12480752;28;20053;-34
2022/08/30 22:17:35;;;;;;;2.85;1.10;;;17.10;99.90;;;;;;12481305;28;20551;-35
2022/08/30 22:23:39;;;;;;;4.75;1.00;;;17.00;99.90;;;;;;12486538;28;20045;-35
2022/08/30 22:29:41;;;;;;;1.90;0.90;;;17.00;99.90;;;;;;12483451;28;20053;-34
2022/08/30 22:35:44;;;;;;;2.17;0.77;;;16.90;99.90;;;;;;12475577;28;20100;-34
2022/08/30 22:41:46;;;;;;;2.00;0.70;;;16.90;99.90;;;;;;12473317;28;20447;-34
2022/08/30 22:47:47;;;;;;;1.17;0.70;;;16.80;99.90;;;;;;12476233;28;20105;-35
2022/08/30 22:53:49;;;;;;;1.95;0.70;;;16.80;99.90;;;;;;12480038;28;20095;-34
2022/08/30 22:59:51;;;;;;;1.58;0.93;;;16.90;99.90;;;;;;12479546;28;20460;-34
2022/08/30 23:05:53;;;;;;;3.55;0.90;;;16.80;99.90;;;;;;12480584;28;20561;-34
2022/08/30 23:11:56;;;;;;;1.27;0.70;;;16.80;99.90;;;;;;12481434;28;20140;-34
2022/08/30 23:17:57;;;;;;;2.83;0.80;;;16.70;99.90;;;;;;12483180;28;20469;-34
